Time;durP1;ratioP1;P1;durP2;ratioP2;P2;SDS_P1;SDS_P2;PMS_P1;PMS_P2;Temp;Humidity;BMP_temperature;BMP_pressure;BME280_temperature;BME280_humidity;BME280_pressure;Samples;Min_cycle;Max_cycle;Signal;HPM_P1;HPM_P2
2021/08/04 00:02:12;;;;;;;2.05;1.87;;;;;;;21.47;65.13;99651.31;4493024;31;33882;-81
2021/08/04 00:04:40;;;;;;;3.72;2.25;;;;;;;21.50;64.96;99649.31;4458982;32;34155;-81
2021/08/04 00:07:07;;;;;;;2.50;2.30;;;;;;;21.50;64.91;99646.62;4464360;31;33452;-81
2021/08/04 00:09:35;;;;;;;3.80;2.22;;;;;;;21.48;64.91;99644.09;4478210;31;34139;-81
2021/08/04 00:12:04;;;;;;;3.45;2.80;;;;;;;21.42;64.95;99642.81;4481740;31;32750;-81
2021/08/04 00:14:31;;;;;;;2.58;2.05;;;;;;;21.48;64.67;99638.72;4476231;31;34083;-81
2021/08/04 00:17:00;;;;;;;7.45;2.55;;;;;;;21.37;65.10;99641.56;4486376;31;33891;-81
2021/08/04 00:19:28;;;;;;;2.35;1.87;;;;;;;21.48;64.72;99638.72;4490288;31;32987;-81
2021/08/04 00:21:55;;;;;;;4.22;2.47;;;;;;;21.48;64.67;99636.88;4472792;31;34081;-80
2021/08/04 00:24:23;;;;;;;3.40;2.37;;;;;;;21.34;65.19;99636.44;4469075;31;33030;-81
2021/08/04 00:27:06;;;;;;;3.90;2.00;;;;;;;21.34;65.03;99636.44;4482360;31;32676;-81
2021/08/04 00:29:34;;;;;;;2.85;2.10;;;;;;;21.53;64.52;99630.25;4467237;31;32376;-81
2021/08/04 00:32:05;;;;;;;2.25;2.05;;;;;;;21.33;65.29;99629.38;4478353;31;34006;-81
2021/08/04 00:34:33;;;;;;;5.28;2.17;;;;;;;21.28;65.50;99632.47;4472223;31;34491;-81
2021/08/04 00:37:01;;;;;;;3.62;2.17;;;;;;;21.32;65.54;99630.38;4474224;31;32532;-81
2021/08/04 00:39:30;;;;;;;2.60;2.40;;;;;;;21.21;66.09;99621.41;4489125;31;32266;-81
2021/08/04 00:41:58;;;;;;;3.78;2.30;;;;;;;21.37;65.32;99612.84;4463039;31;34196;-81
2021/08/04 00:44:25;;;;;;;2.65;2.17;;;;;;;21.23;65.81;99610.56;4476894;31;33408;-81
2021/08/04 00:46:53;;;;;;;4.12;2.25;;;;;;;21.22;65.91;99617.75;4489265;31;33817;-81
2021/08/04 00:49:21;;;;;;;4.22;2.45;;;;;;;21.27;65.62;99622.72;4486855;31;33368;-81
2021/08/04 00:51:48;;;;;;;2.10;1.90;;;;;;;21.44;65.06;99613.97;4472156;31;34285;-81
2021/08/04 00:54:16;;;;;;;2.70;2.37;;;;;;;21.54;64.40;99611.28;4488316;31;35102;-81
2021/08/04 00:56:45;;;;;;;7.20;2.40;;;;;;;21.26;65.47;99612.09;4455581;31;33021;-81
2021/08/04 00:59:14;;;;;;;2.58;2.28;;;;;;;21.20;66.01;99617.03;4478004;31;33331;-81
2021/08/04 01:01:48;;;;;;;3.42;2.28;;;;;;;21.23;65.98;99621.28;4472268;31;34021;-81
2021/08/04 01:04:22;;;;;;;2.80;2.53;;;;;;;21.16;66.52;99623.66;4483478;31;34207;-81
2021/08/04 01:07:12;;;;;;;2.28;1.90;;;;;;;21.23;66.43;99623.97;4470856;31;33942;-80
2021/08/04 01:09:44;;;;;;;2.53;2.33;;;;;;;21.17;66.52;99603.91;4478994;31;33781;-81
2021/08/04 01:12:18;;;;;;;4.40;2.20;;;;;;;21.29;65.98;99599.25;4487371;31;34006;-81
2021/08/04 01:14:47;;;;;;;2.15;1.95;;;;;;;21.18;66.25;99602.06;4463418;31;33947;-81
2021/08/04 01:17:17;;;;;;;3.45;2.40;;;;;;;21.27;65.94;99594.97;4481771;31;33029;-81
2021/08/04 01:20:11;;;;;;;3.70;2.05;;;;;;;21.20;66.23;99600.91;4470925;31;33803;-81
2021/08/04 01:22:49;;;;;;;4.03;2.25;;;;;;;21.30;65.82;99595.56;4474360;31;32703;-81
2021/08/04 01:25:20;;;;;;;2.35;2.15;;;;;;;21.27;65.71;99600.34;4472723;31;33471;-81
2021/08/04 01:27:51;;;;;;;4.45;2.17;;;;;;;21.32;65.51;99595.47;4477960;31;33772;-81
2021/08/04 01:30:19;;;;;;;2.67;2.33;;;;;;;21.14;65.92;99595.28;4468595;31;33816;-81
2021/08/04 01:32:47;;;;;;;2.22;1.80;;;;;;;21.14;66.06;99589.91;4472382;31;34323;-81
2021/08/04 01:35:16;;;;;;;2.40;2.20;;;;;;;21.22;65.55;99588.22;4465666;31;34083;-81
2021/08/04 01:37:46;;;;;;;2.80;2.25;;;;;;;21.12;65.70;99590.03;4483840;31;33838;-81
2021/08/04 01:40:14;;;;;;;5.80;2.50;;;;;;;21.08;65.71;99596.69;4473994;31;32556;-81
2021/08/04 01:42:42;;;;;;;3.33;2.15;;;;;;;21.08;65.42;99594.00;4482040;31;33614;-81
2021/08/04 01:45:10;;;;;;;2.47;2.28;;;;;;;21.03;65.61;99590.88;4472105;31;34456;-81
2021/08/04 01:47:39;;;;;;;2.35;2.05;;;;;;;21.13;65.10;99588.22;4475949;31;32972;-81
2021/08/04 01:50:07;;;;;;;2.87;2.58;;;;;;;21.13;65.00;99594.44;4463692;31;32677;-80
2021/08/04 01:52:42;;;;;;;3.90;1.95;;;;;;;21.05;65.31;99596.09;4476925;31;33133;-81
2021/08/04 01:55:11;;;;;;;2.55;2.12;;;;;;;20.97;65.37;99594.09;4469029;31;33067;-81
2021/08/04 01:57:38;;;;;;;3.00;2.20;;;;;;;21.11;64.93;99595.53;4489686;31;34312;-81
2021/08/04 02:00:07;;;;;;;2.53;2.17;;;;;;;21.03;65.02;99604.31;4475495;31;33361;-81
2021/08/04 02:02:41;;;;;;;3.35;2.33;;;;;;;20.95;65.39;99598.78;4483872;31;33955;-81
2021/08/04 02:05:10;;;;;;;4.05;1.98;;;;;;;20.85;65.58;99600.59;4472231;31;34876;-81
2021/08/04 02:07:58;;;;;;;2.05;1.77;;;;;;;20.82;65.48;99606.22;4466948;31;33800;-81
2021/08/04 02:10:34;;;;;;;2.58;1.77;;;;;;;20.73;65.74;99602.53;4474001;31;33812;-81
2021/08/04 02:13:45;;;;;;;2.20;1.85;;;;;;;20.79;65.40;99618.06;4477808;31;33556;-81
2021/08/04 02:16:40;;;;;;;6.18;2.35;;;;;;;20.74;65.54;99606.03;4454176;31;33257;-80
2021/08/04 02:19:16;;;;;;;2.37;1.87;;;;;;;20.72;65.47;99606.19;4480639;31;33810;-81
2021/08/04 02:21:49;;;;;;;2.75;2.22;;;;;;;20.66;65.76;99612.97;4464991;31;32251;-81
2021/08/04 02:24:18;;;;;;;4.53;1.67;;;;;;;20.64;65.72;99609.53;4478488;31;33846;-81
2021/08/04 02:26:49;;;;;;;2.67;2.20;;;;;;;20.72;65.48;99616.94;4472842;31;34973;-81
2021/08/04 02:29:19;;;;;;;2.80;2.07;;;;;;;20.63;65.70;99617.75;4466284;31;34240;-81
2021/08/04 02:31:47;;;;;;;2.03;1.75;;;;;;;20.64;65.73;99614.91;4467227;31;34880;-81
2021/08/04 02:34:15;;;;;;;2.47;1.92;;;;;;;20.54;65.85;99624.75;4484819;31;34568;-81
2021/08/04 02:36:43;;;;;;;2.55;2.35;;;;;;;20.61;65.49;99619.72;4478233;31;34433;-81
2021/08/04 02:39:11;;;;;;;2.17;2.08;;;;;;;20.54;65.78;99624.75;4471388;31;34183;-81
2021/08/04 02:41:38;;;;;;;2.45;2.25;;;;;;;20.48;65.90;99613.72;4478995;31;33329;-81
2021/08/04 02:44:06;;;;;;;3.17;2.00;;;;;;;20.56;65.55;99613.91;4445421;32;34610;-81
2021/08/04 02:46:34;;;;;;;1.98;1.60;;;;;;;20.46;65.56;99611.13;4475696;31;33144;-81
2021/08/04 02:49:03;;;;;;;2.97;2.62;;;;;;;20.42;65.51;99612.41;4471962;31;33789;-81
2021/08/04 02:51:31;;;;;;;4.45;2.83;;;;;;;20.47;65.23;99620.94;4478433;31;34159;-81
2021/08/04 02:53:59;;;;;;;2.60;2.40;;;;;;;20.31;65.78;99623.19;4482789;31;33157;-81
2021/08/04 02:56:27;;;;;;;2.28;2.00;;;;;;;20.62;64.67;99624.09;4485489;31;34184;-81
2021/08/04 02:58:55;;;;;;;3.35;2.03;;;;;;;20.27;66.46;99668.22;4479709;31;33774;-81
2021/08/04 03:01:23;;;;;;;3.55;2.15;;;;;;;20.15;66.65;99688.03;4483671;31;33085;-81
2021/08/04 03:03:51;;;;;;;2.40;2.20;;;;;;;20.38;65.56;99684.22;4472845;31;33829;-81
2021/08/04 03:06:18;;;;;;;3.70;2.25;;;;;;;20.25;66.14;99680.03;4473281;31;34012;-81
2021/08/04 03:08:46;;;;;;;3.30;2.70;;;;;;;20.58;65.04;99679.00;4471018;31;33159;-81
2021/08/04 03:11:13;;;;;;;3.05;2.37;;;;;;;20.83;64.14;99672.31;4480759;31;32886;-81
2021/08/04 03:13:42;;;;;;;5.80;2.12;;;;;;;20.21;66.31;99677.62;4488086;31;33977;-81
2021/08/04 03:16:09;;;;;;;2.62;2.33;;;;;;;20.25;66.58;99672.00;4466963;31;34237;-80
2021/08/04 03:18:37;;;;;;;6.25;2.22;;;;;;;20.35;66.33;99664.84;4485403;31;34359;-81
2021/08/04 03:21:05;;;;;;;3.05;2.45;;;;;;;20.31;66.71;99666.94;4473624;31;32209;-81
2021/08/04 03:23:33;;;;;;;4.97;2.67;;;;;;;20.00;67.35;99662.53;4487479;31;33684;-81
2021/08/04 03:26:00;;;;;;;3.67;2.78;;;;;;;20.29;66.34;99652.00;4482658;31;33093;-81
2021/08/04 03:28:28;;;;;;;6.53;3.17;;;;;;;20.45;65.83;99660.41;4470688;32;33083;-81
2021/08/04 03:30:55;;;;;;;4.90;2.67;;;;;;;20.33;66.46;99656.13;4470050;31;33927;-80
2021/08/04 03:33:23;;;;;;;3.10;2.45;;;;;;;20.44;66.16;99661.38;4469481;31;33554;-81
2021/08/04 03:35:51;;;;;;;3.87;2.75;;;;;;;20.51;65.87;99651.88;4480558;31;34442;-81
2021/08/04 03:38:18;;;;;;;5.72;3.03;;;;;;;20.53;65.86;99652.56;4481616;31;35081;-81
2021/08/04 03:40:46;;;;;;;4.55;3.50;;;;;;;20.60;65.59;99644.81;4472321;31;33386;-81
2021/08/04 03:43:14;;;;;;;3.80;3.15;;;;;;;20.68;65.52;99645.84;4486447;31;33566;-81
2021/08/04 03:45:41;;;;;;;3.97;3.17;;;;;;;20.53;66.20;99643.69;4471323;31;32981;-81
2021/08/04 03:48:10;;;;;;;5.62;3.37;;;;;;;20.64;65.92;99641.75;4459781;31;33119;-82
2021/08/04 03:50:38;;;;;;;3.35;3.05;;;;;;;20.53;66.72;99654.41;4464764;32;32603;-81
2021/08/04 03:53:05;;;;;;;5.55;3.40;;;;;;;20.71;66.17;99653.66;4467989;31;33202;-81
2021/08/04 03:55:33;;;;;;;5.15;3.62;;;;;;;20.73;66.35;99647.28;4482727;31;34994;-81
2021/08/04 03:58:01;;;;;;;5.55;2.83;;;;;;;20.91;65.66;99653.72;4489664;31;33899;-81
2021/08/04 04:00:28;;;;;;;5.80;3.25;;;;;;;21.02;65.51;99661.66;4493405;31;33433;-81
2021/08/04 04:02:56;;;;;;;5.28;3.12;;;;;;;20.92;66.10;99666.97;4480647;31;34011;-81
2021/08/04 04:05:24;;;;;;;5.78;3.35;;;;;;;21.04;65.67;99665.06;4456380;31;33447;-81
2021/08/04 04:07:51;;;;;;;3.65;2.70;;;;;;;21.08;65.69;99674.53;4473353;31;34796;-81
2021/08/04 04:10:19;;;;;;;2.92;2.62;;;;;;;21.23;65.35;99683.06;4471860;31;33813;-81
2021/08/04 04:12:47;;;;;;;2.75;2.47;;;;;;;21.06;66.06;99679.19;4478296;31;34564;-81
2021/08/04 04:15:14;;;;;;;2.97;2.55;;;;;;;20.99;66.50;99690.63;4474193;31;33578;-81
2021/08/04 04:17:42;;;;;;;3.30;3.00;;;;;;;21.02;66.99;99688.47;4490319;31;34537;-81
2021/08/04 04:20:12;;;;;;;3.20;2.65;;;;;;;21.11;66.93;99687.66;4471608;31;33634;-81
2021/08/04 04:22:44;;;;;;;3.42;2.85;;;;;;;21.19;66.96;99685.16;4473513;31;33944;-81
2021/08/04 04:25:15;;;;;;;4.78;3.20;;;;;;;21.27;66.77;99680.91;4460721;31;35413;-81
2021/08/04 04:27:43;;;;;;;3.83;2.97;;;;;;;21.45;66.07;99680.13;4464599;31;33479;-81
2021/08/04 04:30:12;;;;;;;3.28;2.87;;;;;;;21.46;66.06;99681.00;4479199;31;32234;-81
2021/08/04 04:32:42;;;;;;;7.95;2.78;;;;;;;21.48;66.21;99677.19;4467248;31;32921;-81
2021/08/04 04:35:10;;;;;;;2.78;2.30;;;;;;;21.55;66.00;99680.16;4493428;31;33995;-81
2021/08/04 04:37:38;;;;;;;2.85;2.33;;;;;;;21.69;65.59;99677.03;4470670;31;33630;-81
2021/08/04 04:40:07;;;;;;;3.72;2.70;;;;;;;21.78;64.90;99680.72;4450459;32;33723;-81
2021/08/04 04:42:34;;;;;;;6.80;2.70;;;;;;;21.68;65.75;99680.72;4460246;31;33922;-81
2021/08/04 04:45:02;;;;;;;3.12;2.75;;;;;;;21.79;66.04;99681.56;4491952;31;33346;-81
2021/08/04 04:47:30;;;;;;;3.08;2.42;;;;;;;21.87;65.94;99677.19;4473139;31;33400;-81
2021/08/04 04:49:58;;;;;;;4.28;2.42;;;;;;;21.86;65.70;99678.19;4475044;31;33741;-81
2021/08/04 04:52:25;;;;;;;4.55;2.55;;;;;;;21.95;64.88;99676.50;4469790;31;32891;-81
2021/08/04 04:54:53;;;;;;;2.47;2.17;;;;;;;22.10;64.29;99669.66;4460795;31;33024;-81
2021/08/04 04:57:20;;;;;;;3.05;2.33;;;;;;;22.18;64.24;99683.28;4466226;31;33177;-81
2021/08/04 04:59:48;;;;;;;4.05;2.20;;;;;;;22.07;64.79;99680.69;4483275;31;33374;-81
2021/08/04 05:02:15;;;;;;;2.53;2.15;;;;;;;21.92;65.15;99677.59;4483603;31;34052;-81
2021/08/04 05:04:43;;;;;;;4.22;2.30;;;;;;;22.23;64.10;99675.63;4465870;31;33093;-81
2021/08/04 05:07:11;;;;;;;2.65;2.00;;;;;;;22.32;64.28;99686.53;4480065;31;34360;-81
2021/08/04 05:09:39;;;;;;;2.92;1.85;;;;;;;22.18;64.57;99698.59;4476200;31;33473;-81
2021/08/04 05:12:06;;;;;;;4.03;2.30;;;;;;;22.70;62.71;99699.88;4473424;31;34892;-81
2021/08/04 05:14:34;;;;;;;2.65;1.67;;;;;;;22.89;61.94;99700.81;4458736;32;34603;-81
2021/08/04 05:17:02;;;;;;;3.08;1.67;;;;;;;23.04;60.67;99702.03;4470090;31;34165;-81
2021/08/04 05:19:29;;;;;;;2.03;1.30;;;;;;;22.68;62.50;99707.22;4476265;31;33440;-81
2021/08/04 05:21:57;;;;;;;2.85;1.48;;;;;;;22.77;62.37;99707.34;4472172;31;32679;-81
2021/08/04 05:24:25;;;;;;;3.10;2.15;;;;;;;23.00;61.07;99706.84;4473527;31;33688;-81
2021/08/04 05:26:52;;;;;;;2.58;2.15;;;;;;;23.11;60.39;99711.19;4486426;31;33771;-81
2021/08/04 05:29:20;;;;;;;1.33;1.17;;;;;;;22.91;60.72;99701.50;4465808;31;32588;-81
2021/08/04 05:31:47;;;;;;;3.47;1.70;;;;;;;23.19;59.06;99705.06;4483565;31;33335;-81
2021/08/04 05:34:16;;;;;;;3.33;1.80;;;;;;;22.89;60.32;99714.28;4486059;31;34006;-81
2021/08/04 05:36:44;;;;;;;3.17;1.67;;;;;;;22.71;62.36;99717.72;4476511;31;32725;-81
2021/08/04 05:39:12;;;;;;;1.37;1.27;;;;;;;22.96;61.79;99731.53;4475778;31;32513;-81
2021/08/04 05:41:42;;;;;;;1.65;1.55;;;;;;;23.06;61.32;99731.47;4477166;31;34155;-81
2021/08/04 05:44:09;;;;;;;4.82;1.75;;;;;;;22.75;61.54;99732.56;4484873;31;34806;-81
2021/08/04 05:46:37;;;;;;;1.92;1.17;;;;;;;23.35;60.83;99720.56;4472477;32;33784;-81
2021/08/04 05:49:05;;;;;;;1.92;1.40;;;;;;;23.49;60.38;99720.88;4472907;31;33988;-81
2021/08/04 05:51:32;;;;;;;3.75;1.45;;;;;;;23.54;59.14;99717.75;4492928;31;34096;-81
2021/08/04 05:54:00;;;;;;;3.25;1.60;;;;;;;23.57;59.30;99713.91;4469628;31;34765;-81
2021/08/04 05:56:28;;;;;;;3.90;1.67;;;;;;;23.69;58.96;99713.56;4486360;31;34506;-81
2021/08/04 05:58:55;;;;;;;1.90;1.25;;;;;;;24.08;57.53;99702.47;4473632;31;32747;-81
2021/08/04 06:01:23;;;;;;;2.22;1.30;;;;;;;23.97;57.88;99697.28;4484253;31;33127;-81
2021/08/04 06:03:51;;;;;;;3.92;1.40;;;;;;;23.66;58.74;99705.78;4476220;31;34771;-81
2021/08/04 06:06:19;;;;;;;1.08;0.93;;;;;;;23.77;58.29;99699.31;4467734;31;33459;-81
2021/08/04 06:08:47;;;;;;;2.05;1.50;;;;;;;23.76;58.20;99703.84;4487835;31;33362;-81
2021/08/04 06:11:14;;;;;;;1.85;1.23;;;;;;;23.89;57.23;99692.69;4462749;31;32322;-81
2021/08/04 06:13:42;;;;;;;1.85;1.25;;;;;;;23.79;58.36;99696.47;4450952;32;33878;-81
2021/08/04 06:16:10;;;;;;;4.20;1.37;;;;;;;23.91;58.34;99706.00;4486246;31;33880;-81
2021/08/04 06:18:37;;;;;;;2.22;1.50;;;;;;;23.81;58.87;99706.09;4491964;31;32895;-81
2021/08/04 06:21:05;;;;;;;2.20;1.45;;;;;;;23.96;58.71;99715.34;4483313;31;33926;-81
2021/08/04 06:23:32;;;;;;;1.73;1.62;;;;;;;24.17;58.03;99706.09;4472175;31;34835;-81
2021/08/04 06:26:01;;;;;;;2.17;1.50;;;;;;;23.96;58.80;99704.53;4462214;31;33163;-81
2021/08/04 06:28:43;;;;;;;1.48;1.37;;;;;;;24.11;57.07;99702.13;4483001;31;34048;-81
2021/08/04 06:31:11;;;;;;;1.50;1.40;;;;;;;23.94;57.71;99703.03;4470606;31;33897;-81
2021/08/04 06:33:39;;;;;;;2.08;1.73;;;;;;;24.10;57.10;99689.66;4485808;31;33835;-81
2021/08/04 06:36:07;;;;;;;2.85;1.80;;;;;;;23.84;57.54;99689.63;4488120;31;34460;-81
2021/08/04 06:38:35;;;;;;;1.50;1.40;;;;;;;24.26;56.57;99692.50;4482279;31;33099;-81
2021/08/04 06:41:03;;;;;;;4.45;1.75;;;;;;;24.53;56.27;99687.97;4470327;31;34710;-81
2021/08/04 06:43:30;;;;;;;3.30;1.98;;;;;;;24.46;57.01;99692.31;4463389;31;33069;-81
2021/08/04 06:45:58;;;;;;;2.17;1.80;;;;;;;24.86;53.65;99693.56;4482788;31;34489;-81
2021/08/04 06:48:26;;;;;;;4.53;1.37;;;;;;;25.04;53.42;99688.91;4453719;31;32611;-81
2021/08/04 06:50:53;;;;;;;3.17;1.58;;;;;;;25.11;53.28;99703.47;4470272;32;34997;-81
2021/08/04 06:53:21;;;;;;;3.60;1.70;;;;;;;24.74;54.34;99699.25;4470161;31;34096;-81
2021/08/04 06:55:49;;;;;;;2.20;1.73;;;;;;;24.86;53.64;99702.50;4469656;31;32930;-81
2021/08/04 06:58:16;;;;;;;2.00;1.60;;;;;;;25.13;52.50;99695.25;4484510;31;32997;-81
2021/08/04 07:00:44;;;;;;;2.15;1.48;;;;;;;25.11;51.42;99700.78;4464543;31;33241;-81
2021/08/04 07:03:12;;;;;;;1.58;1.48;;;;;;;25.54;50.45;99701.59;4467167;32;33176;-81
2021/08/04 07:05:40;;;;;;;2.30;1.70;;;;;;;25.68;50.72;99703.66;4480663;31;33301;-81
2021/08/04 07:08:08;;;;;;;1.50;1.40;;;;;;;25.54;50.54;99705.16;4464752;32;33831;-81
2021/08/04 07:10:53;;;;;;;3.30;1.92;;;;;;;25.71;50.88;99702.47;4470773;31;34043;-81
2021/08/04 07:13:22;;;;;;;3.17;1.85;;;;;;;25.85;50.01;99714.53;4484472;31;34111;-81
2021/08/04 07:15:51;;;;;;;1.73;1.62;;;;;;;25.96;50.93;99706.94;4474038;31;34421;-81
2021/08/04 07:18:18;;;;;;;4.10;1.95;;;;;;;25.73;49.99;99708.56;4474253;31;33747;-81
2021/08/04 07:20:46;;;;;;;2.60;2.00;;;;;;;25.88;50.41;99706.94;4480949;31;33548;-82
2021/08/04 07:23:14;;;;;;;2.03;1.83;;;;;;;25.87;52.19;99709.78;4493841;31;34143;-81
2021/08/04 07:25:42;;;;;;;4.10;1.98;;;;;;;25.44;51.31;99696.34;4473040;31;33548;-81
2021/08/04 07:28:10;;;;;;;4.90;3.05;;;;;;;26.25;50.61;99695.63;4473711;32;32504;-81
2021/08/04 07:30:38;;;;;;;5.07;2.10;;;;;;;25.91;49.90;99697.63;4470348;31;34506;-81
2021/08/04 07:33:05;;;;;;;2.28;1.52;;;;;;;26.23;49.07;99696.78;4462753;31;34059;-81
2021/08/04 07:35:33;;;;;;;1.65;1.23;;;;;;;26.45;49.37;99689.88;4483985;31;33402;-81
2021/08/04 07:38:01;;;;;;;2.83;1.75;;;;;;;26.62;47.45;99686.09;4481887;31;33858;-81
2021/08/04 07:40:28;;;;;;;3.90;1.70;;;;;;;26.53;48.00;99682.56;4463011;31;34224;-81
2021/08/04 07:42:56;;;;;;;3.15;1.65;;;;;;;26.57;48.37;99688.47;4471550;31;32984;-81
2021/08/04 07:45:24;;;;;;;3.05;1.48;;;;;;;27.00;46.88;99686.31;4469076;31;32765;-81
2021/08/04 07:47:51;;;;;;;2.87;1.85;;;;;;;26.96;47.06;99682.25;4487408;31;33459;-81
2021/08/04 07:50:20;;;;;;;2.72;2.17;;;;;;;26.48;49.85;99689.50;4466032;32;34240;-81
2021/08/04 07:52:47;;;;;;;1.67;1.30;;;;;;;26.75;48.96;99689.09;4485765;31;33788;-81
2021/08/04 07:55:16;;;;;;;2.53;2.05;;;;;;;27.12;48.64;99697.66;4467537;32;32824;-81
2021/08/04 07:57:45;;;;;;;3.55;1.70;;;;;;;26.92;50.52;99694.47;4493202;31;32610;-81
2021/08/04 08:00:13;;;;;;;1.70;1.60;;;;;;;27.75;46.89;99691.22;4482347;31;33850;-81
2021/08/04 08:02:42;;;;;;;3.97;1.90;;;;;;;28.14;46.23;99699.22;4476833;31;33131;-81
2021/08/04 08:05:11;;;;;;;3.20;1.73;;;;;;;27.89;45.54;99695.87;4494688;31;33867;-81
2021/08/04 08:07:45;;;;;;;2.80;1.12;;;;;;;27.50;46.73;99696.78;4472145;31;33008;-81
2021/08/04 08:10:13;;;;;;;2.70;1.20;;;;;;;28.16;46.14;99699.91;4473198;31;34869;-81
2021/08/04 08:12:40;;;;;;;1.80;1.67;;;;;;;28.37;45.52;99704.66;4473539;31;34013;-81
2021/08/04 08:15:09;;;;;;;2.53;1.50;;;;;;;28.33;44.34;99701.41;4470835;31;34295;-82
2021/08/04 08:17:37;;;;;;;2.75;1.45;;;;;;;28.20;43.54;99698.50;4473799;31;32231;-81
2021/08/04 08:20:06;;;;;;;2.72;1.65;;;;;;;28.08;45.28;99699.94;4478663;31;34816;-81
2021/08/04 08:22:34;;;;;;;2.62;1.60;;;;;;;28.01;42.83;99697.13;4471180;31;34073;-81
2021/08/04 08:25:02;;;;;;;2.58;1.67;;;;;;;28.03;44.07;99692.34;4489936;31;34066;-81
2021/08/04 08:27:29;;;;;;;2.40;1.55;;;;;;;28.07;45.60;99687.41;4473367;31;33141;-81
2021/08/04 08:29:57;;;;;;;2.75;1.30;;;;;;;27.90;44.96;99697.53;4484496;31;34634;-81
2021/08/04 08:32:26;;;;;;;3.17;1.40;;;;;;;28.12;45.31;99695.84;4484923;31;32450;-81
2021/08/04 08:34:54;;;;;;;2.53;1.55;;;;;;;27.90;44.05;99702.13;4473902;31;33269;-81
2021/08/04 08:37:22;;;;;;;2.92;1.90;;;;;;;28.07;44.72;99701.00;4479990;31;33376;-81
2021/08/04 08:39:50;;;;;;;2.60;1.30;;;;;;;28.05;44.40;99700.31;4484869;31;32830;-81
2021/08/04 08:42:20;;;;;;;3.87;1.80;;;;;;;28.15;44.35;99706.31;4484623;31;34024;-81
2021/08/04 08:44:48;;;;;;;1.90;1.52;;;;;;;28.45;42.97;99701.03;4477677;31;33914;-81
2021/08/04 08:47:16;;;;;;;2.58;1.73;;;;;;;28.54;43.61;99697.19;4469761;31;33189;-81
2021/08/04 08:49:44;;;;;;;3.62;1.50;;;;;;;28.61;43.58;99689.97;4480592;31;33902;-81
2021/08/04 08:52:12;;;;;;;1.75;1.35;;;;;;;28.75;44.28;99691.84;4472322;31;34563;-81
2021/08/04 08:54:40;;;;;;;2.65;1.73;;;;;;;28.32;45.38;99691.59;4480394;31;33576;-81
2021/08/04 08:57:07;;;;;;;4.85;1.52;;;;;;;28.52;44.30;99688.37;4481969;31;34001;-81
2021/08/04 08:59:35;;;;;;;2.85;2.08;;;;;;;28.83;43.31;99693.66;4465648;31;33792;-82
2021/08/04 09:02:04;;;;;;;2.55;1.95;;;;;;;28.93;43.02;99691.50;4457679;31;33131;-81
2021/08/04 09:04:31;;;;;;;3.45;1.73;;;;;;;28.63;42.16;99687.06;4470502;31;33598;-81
2021/08/04 09:07:00;;;;;;;2.08;1.40;;;;;;;28.84;42.91;99689.91;4484124;31;32629;-81
2021/08/04 09:09:30;;;;;;;6.80;1.05;;;;;;;29.01;44.97;99693.31;4475319;31;33150;-81
2021/08/04 09:12:13;;;;;;;2.78;0.75;;;;;;;29.38;43.40;99691.44;4475334;31;33768;-81
2021/08/04 09:14:42;;;;;;;1.55;0.82;;;;;;;29.20;43.88;99684.56;4471446;31;33887;-81
2021/08/04 09:17:15;;;;;;;1.37;1.08;;;;;;;28.87;44.91;99684.09;4474560;31;33920;-81
2021/08/04 09:19:45;;;;;;;2.12;1.37;;;;;;;28.70;45.70;99686.16;4474761;31;33722;-81
2021/08/04 09:22:15;;;;;;;1.23;1.00;;;;;;;28.32;45.95;99686.16;4477865;31;34961;-81
2021/08/04 09:24:53;;;;;;;2.95;1.17;;;;;;;28.23;46.36;99679.13;4476565;31;32310;-81
2021/08/04 09:27:46;;;;;;;3.17;1.20;;;;;;;27.95;46.88;99680.72;4496904;31;34099;-81
2021/08/04 09:30:25;;;;;;;1.02;0.80;;;;;;;27.91;47.55;99685.66;4489195;31;33834;-81
2021/08/04 09:32:54;;;;;;;2.37;1.60;;;;;;;27.92;47.44;99690.09;4468308;32;33389;-81
2021/08/04 09:35:23;;;;;;;1.55;1.05;;;;;;;27.68;46.66;99693.78;4481693;31;33828;-81
2021/08/04 09:37:50;;;;;;;3.28;1.20;;;;;;;27.81;47.71;99683.19;4484699;31;32905;-82
2021/08/04 09:40:21;;;;;;;1.48;1.33;;;;;;;27.66;49.23;99690.41;4488751;31;33850;-81
2021/08/04 09:42:54;;;;;;;3.60;1.17;;;;;;;28.07;45.76;99680.13;4469688;31;33749;-81
2021/08/04 09:45:41;;;;;;;2.30;1.20;;;;;;;28.01;46.35;99680.84;4476353;31;33956;-81
2021/08/04 09:48:11;;;;;;;1.80;1.40;;;;;;;28.12;46.55;99685.00;4473737;31;33150;-81
2021/08/04 09:50:44;;;;;;;1.37;1.17;;;;;;;27.93;47.14;99682.78;4473226;31;33561;-81
2021/08/04 09:53:20;;;;;;;2.60;1.20;;;;;;;27.79;49.45;99679.81;4481195;31;35120;-81
2021/08/04 09:56:07;;;;;;;2.12;1.20;;;;;;;27.97;47.01;99678.69;4466126;31;33194;-81
2021/08/04 09:58:38;;;;;;;2.35;1.20;;;;;;;27.79;47.57;99682.53;4487650;31;33794;-81
2021/08/04 10:01:06;;;;;;;2.03;1.40;;;;;;;27.82;48.59;99689.47;4480580;31;34169;-81
2021/08/04 10:03:34;;;;;;;2.45;1.25;;;;;;;27.91;47.22;99690.25;4492896;31;34119;-81
2021/08/04 10:06:02;;;;;;;3.53;1.52;;;;;;;27.67;49.38;99694.78;4459077;31;32707;-81
2021/08/04 10:08:45;;;;;;;4.82;1.87;;;;;;;27.78;48.34;99685.44;4487058;31;33414;-81
2021/08/04 10:11:13;;;;;;;1.40;1.05;;;;;;;27.78;47.82;99685.44;4492361;31;34822;-81
2021/08/04 10:13:41;;;;;;;1.40;1.30;;;;;;;27.47;49.66;99686.28;4464866;31;33879;-81
2021/08/04 10:16:09;;;;;;;2.83;1.20;;;;;;;27.84;48.32;99682.00;4474455;31;33744;-82
2021/08/04 10:18:39;;;;;;;1.30;1.20;;;;;;;27.99;48.42;99684.75;4475081;31;33622;-81
2021/08/04 10:21:11;;;;;;;1.62;1.40;;;;;;;27.93;49.36;99677.34;4467180;31;32904;-81
2021/08/04 10:23:42;;;;;;;1.45;1.20;;;;;;;27.89;49.64;99681.47;4486536;31;34874;-81
2021/08/04 10:26:11;;;;;;;1.50;1.27;;;;;;;28.12;49.28;99679.56;4485777;31;33775;-82
2021/08/04 10:28:41;;;;;;;1.33;1.23;;;;;;;27.57;52.07;99670.63;4479503;31;31974;-81
2021/08/04 10:31:12;;;;;;;2.10;1.17;;;;;;;28.32;49.65;99674.47;4485728;31;33945;-81
2021/08/04 10:33:41;;;;;;;1.42;1.25;;;;;;;28.70;48.02;99669.84;4492905;31;35510;-81
2021/08/04 10:36:11;;;;;;;2.92;1.20;;;;;;;28.81;46.56;99672.06;4475460;31;34493;-81
2021/08/04 10:38:44;;;;;;;1.65;1.50;;;;;;;28.65;48.22;99664.13;4485647;31;32667;-81
2021/08/04 10:41:18;;;;;;;2.35;1.90;;;;;;;28.62;46.91;99669.91;4465299;31;33795;-81
2021/08/04 10:43:50;;;;;;;2.78;2.03;;;;;;;28.78;46.38;99668.91;4466016;31;34096;-82
2021/08/04 10:46:30;;;;;;;;;;;;;;;28.78;47.50;99658.03;4471555;31;32785;-82
2021/08/04 10:49:12;;;;;;;2.03;1.27;;;;;;;29.17;45.52;99663.19;4479468;31;35037;-81
2021/08/04 10:51:43;;;;;;;1.20;1.10;;;;;;;29.09;45.77;99663.28;4475405;31;33152;-81
2021/08/04 10:54:17;;;;;;;1.90;1.23;;;;;;;29.06;45.26;99660.97;4459502;31;33451;-81
2021/08/04 10:56:45;;;;;;;2.15;1.95;;;;;;;28.87;46.76;99665.06;4465066;31;33084;-81
2021/08/04 10:59:13;;;;;;;3.15;1.73;;;;;;;29.00;45.28;99657.09;4468136;31;32221;-81
2021/08/04 11:01:41;;;;;;;1.95;1.52;;;;;;;28.94;44.88;99652.41;4492488;31;33892;-81
2021/08/04 11:04:12;;;;;;;2.55;1.50;;;;;;;28.79;49.30;99654.28;4479746;31;34490;-81
2021/08/04 11:07:12;;;;;;;2.65;1.70;;;;;;;29.47;44.80;99657.66;4479335;31;32809;-82
2021/08/04 11:09:43;;;;;;;4.22;1.80;;;;;;;29.52;43.52;99653.31;4485557;31;32922;-81
2021/08/04 11:12:15;;;;;;;2.15;1.90;;;;;;;29.46;43.90;99656.81;4498893;31;33561;-81
2021/08/04 11:14:43;;;;;;;1.65;1.45;;;;;;;29.27;43.90;99655.56;4480576;31;33077;-81
2021/08/04 11:17:22;;;;;;;2.58;2.37;;;;;;;29.07;44.61;99657.19;4483527;31;33087;-81
2021/08/04 11:19:50;;;;;;;1.98;1.45;;;;;;;28.81;44.47;99657.66;4488682;31;33880;-81
2021/08/04 11:22:19;;;;;;;1.98;1.75;;;;;;;28.72;45.50;99659.66;4477581;31;33526;-81
2021/08/04 11:24:57;;;;;;;1.83;1.48;;;;;;;28.89;45.26;99637.69;4477689;31;33721;-81
2021/08/04 11:27:29;;;;;;;4.22;1.52;;;;;;;28.97;45.87;99643.06;4485647;31;32618;-81
2021/08/04 11:29:58;;;;;;;3.00;1.70;;;;;;;29.07;45.12;99646.34;4479989;31;33307;-81
2021/08/04 11:32:28;;;;;;;4.25;2.08;;;;;;;29.13;45.04;99639.28;4473878;31;33751;-81
2021/08/04 11:34:56;;;;;;;2.08;1.90;;;;;;;29.21;45.26;99644.63;4470315;32;33999;-82
2021/08/04 11:37:27;;;;;;;2.37;1.67;;;;;;;29.53;45.50;99635.13;4483580;31;33488;-82
2021/08/04 11:40:00;;;;;;;1.95;1.30;;;;;;;29.62;43.38;99633.16;4474981;31;33209;-82
2021/08/04 11:42:28;;;;;;;2.33;1.62;;;;;;;29.88;44.37;99636.13;4480662;31;33819;-82
2021/08/04 11:45:07;;;;;;;2.40;1.40;;;;;;;29.91;43.78;99632.16;4473248;32;34924;-81
2021/08/04 11:47:34;;;;;;;3.55;1.50;;;;;;;29.91;42.78;99637.59;4489772;31;33928;-82